Time;durP1;ratioP1;P1;durP2;ratioP2;P2;SDS_P1;SDS_P2;PMS_P1;PMS_P2;Temp;Humidity;BMP_temperature;BMP_pressure;BME280_temperature;BME280_humidity;BME280_pressure;Samples;Min_cycle;Max_cycle;Signal;HPM_P1;HPM_P2
2023/10/14 00:01:27;;;;;;;1.00;0.90;;;14.10;99.90;;;;;;5044958;28;20421;-67
2023/10/14 00:03:54;;;;;;;3.93;1.43;;;14.20;99.90;;;;;;5056885;28;20406;-67
2023/10/14 00:06:20;;;;;;;4.50;0.90;;;14.20;99.90;;;;;;5055017;28;20457;-73
2023/10/14 00:08:58;;;;;;;2.17;0.90;;;14.20;99.90;;;;;;5056546;28;20464;-66
2023/10/14 00:11:40;;;;;;;4.67;1.27;;;14.20;99.90;;;;;;5056485;28;20381;-68
2023/10/14 00:14:16;;;;;;;1.20;0.90;;;14.20;99.90;;;;;;5044552;28;20429;-67
2023/10/14 00:16:49;;;;;;;2.33;1.00;;;14.20;99.90;;;;;;5035508;28;20472;-67
2023/10/14 00:19:18;;;;;;;1.40;1.10;;;14.20;99.90;;;;;;5056504;28;20408;-67
2023/10/14 00:21:44;;;;;;;2.60;1.30;;;14.20;99.90;;;;;;5056389;28;20891;-67
2023/10/14 00:24:09;;;;;;;1.63;1.07;;;14.10;99.90;;;;;;5056451;28;20409;-67
2023/10/14 00:26:35;;;;;;;3.20;1.10;;;14.10;99.90;;;;;;5054734;28;20425;-67
2023/10/14 00:29:19;;;;;;;2.30;1.17;;;14.10;99.90;;;;;;5056283;28;20198;-67
2023/10/14 00:31:49;;;;;;;8.97;3.57;;;14.10;99.90;;;;;;5039493;28;20259;-67
2023/10/14 00:34:15;;;;;;;4.00;1.80;;;14.10;99.90;;;;;;5036190;28;20430;-67
2023/10/14 00:36:42;;;;;;;3.37;2.67;;;14.10;99.90;;;;;;5034026;28;20457;-68
2023/10/14 00:39:23;;;;;;;5.33;1.90;;;14.10;99.90;;;;;;5036252;28;20396;-66
2023/10/14 00:41:50;;;;;;;2.80;1.30;;;14.00;99.90;;;;;;5036145;28;20802;-66
2023/10/14 00:44:16;;;;;;;2.20;1.20;;;14.00;99.90;;;;;;5035907;28;20401;-67
2023/10/14 00:46:48;;;;;;;5.10;2.17;;;14.00;99.90;;;;;;5037974;28;20408;-68
2023/10/14 00:49:16;;;;;;;1.63;1.00;;;14.00;99.90;;;;;;5036095;28;20413;-66
2023/10/14 00:51:45;;;;;;;3.70;1.17;;;14.00;99.90;;;;;;5048447;28;20809;-68
2023/10/14 00:54:17;;;;;;;2.60;1.60;;;14.00;99.90;;;;;;5057045;28;20409;-66
2023/10/14 00:56:43;;;;;;;5.30;1.43;;;13.90;99.90;;;;;;5054843;28;20421;-66
2023/10/14 00:59:09;;;;;;;5.90;1.73;;;13.80;99.90;;;;;;5055614;28;20742;-66
2023/10/14 01:01:55;;;;;;;5.80;1.33;;;13.80;99.90;;;;;;5055696;28;20163;-68
2023/10/14 01:04:31;;;;;;;6.30;2.30;;;13.70;99.90;;;;;;5049822;28;20406;-66
2023/10/14 01:07:12;;;;;;;1.57;1.40;;;13.70;99.90;;;;;;5038184;28;20456;-66
2023/10/14 01:14:59;;;;;;;10.23;1.77;;;13.70;99.90;;;;;;5054685;28;20413;-66
2023/10/14 01:17:28;;;;;;;1.20;1.10;;;13.60;99.90;;;;;;5055336;28;20436;-66
2023/10/14 01:19:55;;;;;;;3.63;1.57;;;13.50;99.90;;;;;;5054869;28;20420;-69
2023/10/14 01:22:21;;;;;;;4.37;1.67;;;13.50;99.90;;;;;;5053333;28;20460;-66
2023/10/14 01:24:48;;;;;;;3.57;1.33;;;13.40;99.90;;;;;;5054417;28;20406;-66
2023/10/14 01:27:16;;;;;;;5.50;1.70;;;13.40;99.90;;;;;;5055218;28;20453;-66
2023/10/14 01:29:42;;;;;;;6.07;1.37;;;13.40;99.90;;;;;;5055189;28;20402;-68
2023/10/14 01:35:12;;;;;;;3.67;1.63;;;13.30;99.90;;;;;;5053951;28;20457;-66
2023/10/14 01:37:45;;;;;;;2.10;1.53;;;13.30;99.90;;;;;;5054037;28;20793;-70
2023/10/14 01:42:49;;;;;;;3.80;1.40;;;13.20;99.90;;;;;;5034865;28;20420;-68
2023/10/14 01:45:20;;;;;;;3.60;1.50;;;13.20;99.90;;;;;;5034174;28;20806;-66
2023/10/14 01:48:05;;;;;;;4.03;1.50;;;13.20;99.90;;;;;;5034748;28;21004;-69
2023/10/14 01:50:32;;;;;;;2.07;1.60;;;13.20;99.90;;;;;;5034905;28;20744;-66
2023/10/14 01:53:10;;;;;;;11.73;1.70;;;13.20;99.90;;;;;;5034952;28;20918;-66
2023/10/14 01:55:42;;;;;;;8.33;2.00;;;13.10;99.90;;;;;;5039603;28;20462;-65
2023/10/14 01:58:21;;;;;;;6.37;1.80;;;13.10;99.90;;;;;;5033945;28;20878;-66
2023/10/14 02:00:52;;;;;;;5.53;1.70;;;13.00;99.90;;;;;;5034679;28;20376;-66
2023/10/14 02:03:20;;;;;;;3.00;1.50;;;13.00;99.90;;;;;;5034609;28;20406;-68
2023/10/14 02:05:46;;;;;;;5.57;1.70;;;13.00;99.90;;;;;;5033449;28;20584;-67
2023/10/14 02:08:15;;;;;;;7.80;2.77;;;13.00;99.90;;;;;;5034316;28;20548;-65
2023/10/14 02:10:50;;;;;;;7.33;2.13;;;13.00;99.90;;;;;;5034473;28;20199;-65
2023/10/14 02:13:16;;;;;;;12.53;1.80;;;12.80;99.90;;;;;;5041378;28;20487;-65
2023/10/14 02:15:46;;;;;;;6.20;1.90;;;12.80;99.90;;;;;;5031203;28;20487;-65
2023/10/14 02:18:20;;;;;;;5.93;2.10;;;12.80;99.90;;;;;;5034018;28;20948;-65
2023/10/14 02:20:57;;;;;;;4.60;1.97;;;12.80;99.90;;;;;;5034019;28;20406;-73
2023/10/14 02:23:26;;;;;;;4.37;1.70;;;12.80;99.90;;;;;;5041385;28;20797;-67
2023/10/14 02:25:56;;;;;;;3.70;2.00;;;12.60;99.90;;;;;;5053118;28;20944;-65
2023/10/14 02:28:39;;;;;;;4.30;1.30;;;12.60;99.90;;;;;;5053964;28;20463;-65
2023/10/14 02:31:17;;;;;;;6.07;2.20;;;12.50;99.90;;;;;;5053274;28;20461;-65
2023/10/14 02:33:46;;;;;;;5.17;1.90;;;12.50;99.90;;;;;;5053941;28;20737;-66
2023/10/14 02:36:16;;;;;;;3.63;2.57;;;12.50;99.90;;;;;;5052350;28;20479;-66
2023/10/14 02:38:53;;;;;;;7.63;2.07;;;12.50;99.90;;;;;;5040180;28;20436;-65
2023/10/14 02:41:19;;;;;;;7.83;2.53;;;12.60;99.90;;;;;;5033863;28;20418;-65
2023/10/14 02:43:49;;;;;;;6.93;1.97;;;12.50;99.90;;;;;;5033894;28;20381;-65
2023/10/14 02:46:21;;;;;;;8.00;1.60;;;12.50;99.90;;;;;;5034228;28;20491;-65
2023/10/14 02:48:53;;;;;;;9.23;1.57;;;12.50;99.90;;;;;;5053566;28;20453;-65
2023/10/14 02:51:29;;;;;;;7.40;1.70;;;12.50;99.90;;;;;;5053662;28;20387;-65
2023/10/14 02:53:56;;;;;;;2.37;2.00;;;12.50;99.90;;;;;;5050956;28;20934;-65
2023/10/14 02:56:32;;;;;;;4.57;1.87;;;12.50;99.90;;;;;;5036529;28;20502;-67
2023/10/14 02:58:58;;;;;;;8.77;1.67;;;12.50;99.90;;;;;;5053522;28;20416;-65
2023/10/14 03:01:31;;;;;;;3.87;2.60;;;12.50;99.90;;;;;;5053482;28;20881;-65
2023/10/14 03:03:57;;;;;;;7.57;2.33;;;12.50;99.90;;;;;;5052541;28;20304;-65
2023/10/14 03:06:23;;;;;;;7.00;3.10;;;12.40;99.90;;;;;;5052302;28;20445;-65
2023/10/14 03:08:58;;;;;;;9.60;2.70;;;12.40;99.90;;;;;;5052340;28;20468;-65
2023/10/14 03:11:31;;;;;;;4.20;3.00;;;12.40;99.90;;;;;;5053454;28;20162;-66
2023/10/14 03:13:56;;;;;;;6.40;3.13;;;12.40;99.90;;;;;;5053025;28;20780;-65
2023/10/14 03:16:22;;;;;;;6.30;2.03;;;12.40;99.90;;;;;;5051995;28;20396;-65
2023/10/14 03:18:48;;;;;;;10.00;2.40;;;12.30;99.90;;;;;;5053078;28;20178;-66
2023/10/14 03:21:23;;;;;;;4.00;2.13;;;12.40;99.90;;;;;;5041040;28;20191;-65
2023/10/14 03:23:48;;;;;;;6.13;4.37;;;12.30;99.90;;;;;;5044497;28;20182;-65
2023/10/14 03:26:15;;;;;;;15.33;2.57;;;12.30;99.90;;;;;;5050884;28;20412;-65
2023/10/14 03:28:44;;;;;;;7.63;2.83;;;12.20;99.90;;;;;;5053048;28;20252;-65
2023/10/14 03:31:15;;;;;;;11.77;2.67;;;12.20;99.90;;;;;;5051694;28;20401;-65
2023/10/14 03:33:44;;;;;;;5.73;2.70;;;12.10;99.90;;;;;;5053178;28;20391;-64
2023/10/14 03:36:17;;;;;;;7.63;2.40;;;12.10;99.90;;;;;;5052158;28;20475;-65
2023/10/14 03:38:46;;;;;;;8.40;3.00;;;12.00;99.90;;;;;;5035357;28;20434;-66
2023/10/14 03:43:54;;;;;;;7.70;2.03;;;11.90;99.90;;;;;;5033034;28;20455;-65
2023/10/14 03:46:35;;;;;;;10.40;2.37;;;11.90;99.90;;;;;;5032068;28;20905;-65
2023/10/14 03:49:20;;;;;;;10.30;3.20;;;11.90;99.90;;;;;;5032199;28;20462;-65
2023/10/14 03:51:46;;;;;;;5.63;2.10;;;11.80;99.90;;;;;;5040443;28;20429;-65
2023/10/14 03:54:19;;;;;;;12.60;2.67;;;11.80;99.90;;;;;;5049043;28;20936;-65
2023/10/14 03:56:45;;;;;;;8.30;2.80;;;11.80;99.90;;;;;;5044024;28;20464;-65
2023/10/14 03:59:25;;;;;;;8.10;3.03;;;11.70;99.90;;;;;;5051543;28;20877;-64
2023/10/14 04:01:57;;;;;;;19.17;3.93;;;11.70;99.90;;;;;;5052894;28;20380;-65
2023/10/14 04:04:24;;;;;;;5.90;2.20;;;11.50;99.90;;;;;;5051953;28;20405;-73
2023/10/14 04:12:38;;;;;;;7.67;2.30;;;11.50;99.90;;;;;;5036836;28;20462;-64
2023/10/14 04:15:15;;;;;;;8.73;2.27;;;11.50;99.90;;;;;;5051752;28;20380;-66
2023/10/14 04:17:47;;;;;;;5.43;2.70;;;11.50;99.90;;;;;;5052688;28;20417;-65
2023/10/14 04:22:41;;;;;;;22.13;2.90;;;11.40;99.90;;;;;;5052209;28;20470;-64
2023/10/14 04:30:32;;;;;;;4.67;2.80;;;11.30;99.90;;;;;;5032950;28;20414;-65
2023/10/14 04:35:31;;;;;;;14.10;3.30;;;11.30;99.90;;;;;;5031722;28;20418;-64
2023/10/14 04:38:02;;;;;;;12.37;3.10;;;11.20;99.90;;;;;;5032510;28;20445;-64
2023/10/14 04:43:18;;;;;;;4.40;2.70;;;11.20;99.90;;;;;;5034023;28;20406;-64
2023/10/14 04:45:52;;;;;;;9.57;3.07;;;11.20;99.90;;;;;;5049961;28;20575;-65
2023/10/14 04:49:07;;;;;;;10.43;2.50;;;11.20;97.50;;;;;;5040375;28;20440;-65
2023/10/14 04:51:18;;;;;;;12.30;3.40;;;11.20;90.70;;;;;;5051064;28;20885;-66
2023/10/14 04:53:45;;;;;;;19.63;2.70;;;11.20;86.10;;;;;;5055054;28;20400;-65
2023/10/14 04:56:11;;;;;;;8.77;2.97;;;11.20;81.30;;;;;;5054945;28;20391;-65
2023/10/14 04:58:40;;;;;;;9.03;2.23;;;11.20;79.60;;;;;;5054852;28;20971;-66
2023/10/14 05:01:10;;;;;;;17.07;2.50;;;11.20;77.40;;;;;;5047103;28;20226;-66
2023/10/14 05:03:36;;;;;;;12.13;2.63;;;11.10;50.00;;;;;;5036208;28;20395;-65
2023/10/14 05:08:44;;;;;;;6.80;2.17;;;11.00;23.10;;;;;;5035739;28;20952;-65
2023/10/14 05:11:12;;;;;;;12.67;2.90;;;11.00;10.90;;;;;;5035553;28;20766;-65
2023/10/14 05:13:46;;;;;;;2.13;1.93;;;10.90;6.40;;;;;;5035470;28;20426;-65
2023/10/14 05:16:15;;;;;;;6.97;3.27;;;10.90;7.20;;;;;;5047556;28;20436;-65
2023/10/14 05:18:58;;;;;;;5.97;2.17;;;10.90;1.00;;;;;;5055457;28;20380;-65
2023/10/14 05:21:36;;;;;;;8.50;3.67;;;10.80;1.00;;;;;;5035369;28;20423;-67
2023/10/14 05:24:09;;;;;;;9.37;3.00;;;10.80;1.00;;;;;;5035434;28;20402;-65
2023/10/14 05:26:45;;;;;;;8.70;2.30;;;10.80;1.00;;;;;;5034462;28;20436;-65
2023/10/14 05:29:19;;;;;;;4.27;2.23;;;10.80;1.00;;;;;;5039466;28;20506;-65
2023/10/14 05:31:48;;;;;;;3.60;2.20;;;10.80;1.00;;;;;;5055128;28;20411;-65
2023/10/14 05:34:15;;;;;;;4.03;1.87;;;10.70;1.00;;;;;;5055025;28;20741;-65
2023/10/14 05:36:41;;;;;;;9.40;2.27;;;10.70;1.00;;;;;;5045465;28;20770;-65
2023/10/14 05:39:10;;;;;;;11.30;2.23;;;10.70;1.00;;;;;;5035157;28;20416;-65
2023/10/14 05:41:38;;;;;;;9.03;3.00;;;10.70;1.00;;;;;;5035123;28;20198;-65
2023/10/14 05:44:04;;;;;;;6.23;2.47;;;10.60;1.00;;;;;;5044360;28;20418;-65
2023/10/14 05:46:30;;;;;;;9.90;3.10;;;10.60;1.00;;;;;;5049804;28;20441;-65
2023/10/14 05:48:56;;;;;;;6.00;2.50;;;10.60;1.00;;;;;;5034794;28;20523;-65
2023/10/14 05:51:22;;;;;;;5.27;2.50;;;10.60;1.00;;;;;;5034887;28;20817;-64
2023/10/14 05:53:49;;;;;;;9.63;2.60;;;10.60;1.00;;;;;;5040808;28;20183;-68
2023/10/14 05:56:15;;;;;;;5.03;2.40;;;10.70;1.00;;;;;;5052669;28;20412;-65
2023/10/14 05:58:41;;;;;;;7.83;3.00;;;10.60;1.00;;;;;;5052249;28;20404;-65
2023/10/14 06:01:09;;;;;;;10.20;3.87;;;10.60;1.00;;;;;;5050674;28;20171;-65
2023/10/14 06:03:35;;;;;;;8.47;2.00;;;10.60;1.00;;;;;;5034767;28;20402;-64
2023/10/14 06:06:01;;;;;;;11.70;2.60;;;10.60;1.00;;;;;;5032457;28;20503;-65
2023/10/14 06:08:27;;;;;;;10.20;3.20;;;10.60;1.00;;;;;;5034239;28;20529;-64
2023/10/14 06:10:53;;;;;;;5.33;2.20;;;10.60;1.00;;;;;;5043020;28;20891;-65
2023/10/14 06:13:19;;;;;;;8.47;2.67;;;10.60;1.00;;;;;;5052228;28;20408;-64
2023/10/14 06:15:46;;;;;;;8.10;2.40;;;10.60;1.00;;;;;;5042240;28;20437;-64
2023/10/14 06:18:15;;;;;;;6.83;2.50;;;10.70;1.00;;;;;;5037648;28;20413;-65
2023/10/14 06:20:42;;;;;;;8.43;2.27;;;10.70;1.00;;;;;;5049913;28;20419;-65
2023/10/14 06:23:08;;;;;;;6.03;2.43;;;10.80;1.00;;;;;;5054212;28;20544;-64
2023/10/14 06:25:36;;;;;;;4.37;1.80;;;10.80;1.00;;;;;;5053208;28;20475;-64
2023/10/14 06:28:03;;;;;;;2.30;2.07;;;10.80;1.00;;;;;;5043402;28;20196;-64
2023/10/14 06:30:29;;;;;;;2.37;2.17;;;10.80;1.00;;;;;;5035980;28;20446;-64
2023/10/14 06:33:04;;;;;;;7.50;2.27;;;10.90;1.00;;;;;;5051748;28;20373;-64
2023/10/14 06:35:32;;;;;;;5.20;1.97;;;10.90;1.00;;;;;;5033146;28;20515;-64
2023/10/14 06:37:58;;;;;;;7.27;2.37;;;10.90;1.00;;;;;;5033997;28;20385;-66
2023/10/14 06:40:24;;;;;;;6.03;2.13;;;10.90;1.00;;;;;;5035967;28;20419;-65
2023/10/14 06:42:50;;;;;;;4.67;2.10;;;10.90;1.00;;;;;;5053720;28;20383;-64
2023/10/14 06:45:23;;;;;;;7.93;3.00;;;10.90;1.00;;;;;;5040335;28;20400;-66
2023/10/14 06:47:56;;;;;;;10.67;2.57;;;10.90;1.00;;;;;;5039375;28;20210;-64
2023/10/14 06:50:26;;;;;;;6.53;2.20;;;10.90;1.00;;;;;;5053609;28;20376;-66
2023/10/14 06:53:00;;;;;;;8.03;2.17;;;10.90;1.00;;;;;;5053673;28;20433;-64
2023/10/14 06:55:27;;;;;;;10.73;3.07;;;10.90;1.00;;;;;;5052534;28;20571;-66
2023/10/14 06:57:55;;;;;;;7.60;2.23;;;10.90;1.00;;;;;;5053452;28;20445;-65
2023/10/14 07:00:29;;;;;;;4.00;2.30;;;10.80;1.00;;;;;;5051444;28;20384;-65
2023/10/14 07:02:57;;;;;;;9.57;2.30;;;10.90;1.00;;;;;;5043795;28;20407;-65
2023/10/14 07:05:23;;;;;;;12.63;3.10;;;10.90;1.00;;;;;;5051153;28;20396;-69
2023/10/14 07:07:49;;;;;;;4.80;2.53;;;10.90;1.00;;;;;;5053133;28;20507;-65
2023/10/14 07:10:16;;;;;;;8.50;2.70;;;10.90;99.90;;;;;;5053374;28;20807;-65
2023/10/14 07:12:42;;;;;;;15.17;2.47;;;10.90;99.90;;;;;;5053296;28;20422;-65
2023/10/14 07:15:12;;;;;;;6.57;2.57;;;10.90;99.90;;;;;;5052413;28;20754;-67
2023/10/14 07:17:42;;;;;;;7.43;2.63;;;10.90;99.90;;;;;;5052432;28;20481;-64
2023/10/14 07:20:13;;;;;;;6.60;1.93;;;11.00;99.90;;;;;;5043370;28;20388;-68
2023/10/14 07:22:42;;;;;;;12.00;2.90;;;11.00;99.90;;;;;;5052462;28;20367;-65
2023/10/14 07:25:11;;;;;;;10.50;2.23;;;11.00;99.90;;;;;;5052341;28;20437;-65
2023/10/14 07:27:40;;;;;;;17.70;4.03;;;11.10;99.90;;;;;;5052026;28;20428;-65
2023/10/14 07:30:13;;;;;;;6.83;1.83;;;11.10;99.90;;;;;;5048238;28;20430;-65
2023/10/14 07:32:48;;;;;;;4.17;2.20;;;11.20;99.90;;;;;;5033065;28;20365;-65
2023/10/14 07:35:16;;;;;;;7.50;2.50;;;11.30;99.90;;;;;;5031078;28;20442;-65
2023/10/14 07:37:44;;;;;;;7.43;2.57;;;11.30;99.90;;;;;;5032623;28;20761;-65
2023/10/14 07:40:11;;;;;;;5.07;1.80;;;11.40;99.90;;;;;;5035796;28;20959;-65
2023/10/14 07:42:40;;;;;;;12.40;2.87;;;11.40;99.90;;;;;;5053052;28;20412;-65
2023/10/14 07:45:10;;;;;;;8.57;2.47;;;11.50;99.90;;;;;;5050895;28;20794;-65
2023/10/14 07:47:38;;;;;;;9.67;2.47;;;11.50;99.90;;;;;;5052863;28;20823;-64
2023/10/14 07:50:09;;;;;;;7.17;2.93;;;11.50;99.90;;;;;;5053070;28;20874;-65
2023/10/14 07:52:36;;;;;;;6.30;2.33;;;11.60;99.90;;;;;;5053005;28;20434;-65
2023/10/14 07:55:04;;;;;;;6.20;2.43;;;11.60;99.90;;;;;;5048604;28;20434;-65
2023/10/14 07:57:30;;;;;;;7.53;3.40;;;11.70;99.90;;;;;;5052891;28;20400;-65
2023/10/14 07:59:59;;;;;;;14.67;2.60;;;11.80;99.90;;;;;;5052798;28;20372;-65
2023/10/14 08:02:28;;;;;;;4.17;2.60;;;11.90;99.90;;;;;;5052900;28;20379;-65
2023/10/14 08:04:54;;;;;;;10.73;2.77;;;11.90;99.90;;;;;;5050628;28;20415;-67
2023/10/14 08:07:20;;;;;;;12.17;3.70;;;12.10;99.90;;;;;;5052630;28;20419;-65
2023/10/14 08:09:47;;;;;;;10.33;3.00;;;12.20;99.90;;;;;;5042228;28;20176;-65
2023/10/14 08:12:14;;;;;;;6.03;2.60;;;12.20;99.90;;;;;;5047407;28;20888;-64
2023/10/14 08:14:44;;;;;;;11.90;3.10;;;12.10;99.90;;;;;;5051210;28;20982;-65
2023/10/14 08:17:11;;;;;;;8.33;2.67;;;12.10;99.90;;;;;;5052960;28;20924;-65
2023/10/14 08:19:38;;;;;;;11.10;3.40;;;12.20;99.90;;;;;;5056591;28;20437;-64
2023/10/14 08:22:05;;;;;;;11.03;3.60;;;12.20;99.90;;;;;;5047279;28;20520;-65
2023/10/14 08:24:31;;;;;;;11.93;3.43;;;12.30;99.90;;;;;;5036029;28;20886;-77
2023/10/14 08:26:57;;;;;;;4.80;2.17;;;12.40;99.90;;;;;;5051701;28;20492;-64
2023/10/14 08:29:22;;;;;;;11.50;2.83;;;12.50;99.90;;;;;;5055445;28;20917;-67
2023/10/14 08:31:53;;;;;;;8.20;2.70;;;12.60;99.90;;;;;;5054819;28;20410;-66
2023/10/14 08:34:23;;;;;;;9.53;3.30;;;12.70;99.90;;;;;;5055839;28;20178;-65
2023/10/14 08:36:49;;;;;;;9.60;2.53;;;12.80;99.90;;;;;;5049745;28;20431;-65
2023/10/14 08:39:15;;;;;;;10.70;4.20;;;12.90;99.90;;;;;;5056093;28;20376;-65
2023/10/14 08:41:47;;;;;;;14.90;3.40;;;13.00;99.90;;;;;;5056048;28;20580;-65
2023/10/14 08:44:20;;;;;;;12.83;5.07;;;13.10;99.90;;;;;;5045438;28;20429;-65
2023/10/14 08:46:47;;;;;;;6.73;2.10;;;13.20;99.90;;;;;;5051549;28;20995;-65
2023/10/14 08:49:14;;;;;;;14.53;2.60;;;13.00;93.10;;;;;;5051850;28;20497;-69
2023/10/14 08:51:42;;;;;;;11.50;3.00;;;13.10;77.10;;;;;;5049606;28;20429;-74
2023/10/14 08:54:11;;;;;;;6.87;2.97;;;13.20;68.60;;;;;;5036987;28;20447;-65
2023/10/14 08:56:36;;;;;;;8.77;2.93;;;13.30;64.20;;;;;;5045374;28;20423;-64
2023/10/14 08:59:03;;;;;;;9.23;2.90;;;13.50;60.10;;;;;;5054042;28;20919;-68
2023/10/14 09:01:31;;;;;;;5.73;2.27;;;13.70;28.50;;;;;;5037514;28;20179;-65
2023/10/14 09:03:59;;;;;;;10.87;3.43;;;13.80;13.50;;;;;;5054069;28;20782;-65
2023/10/14 09:06:25;;;;;;;15.77;4.07;;;14.00;2.80;;;;;;5038266;28;20538;-65
2023/10/14 09:08:51;;;;;;;10.63;2.50;;;14.20;1.00;;;;;;5049441;28;20607;-67
2023/10/14 09:11:33;;;;;;;11.17;3.00;;;14.30;1.00;;;;;;5036740;28;20175;-67
2023/10/14 09:14:10;;;;;;;8.20;2.90;;;14.50;1.00;;;;;;5035622;28;20405;-66
2023/10/14 09:16:36;;;;;;;13.73;2.30;;;14.40;1.00;;;;;;5034627;28;20414;-65
2023/10/14 09:19:05;;;;;;;6.53;2.30;;;14.50;1.00;;;;;;5035455;28;20406;-65
2023/10/14 09:21:31;;;;;;;5.63;2.60;;;14.60;1.00;;;;;;5035373;28;20404;-65
2023/10/14 09:24:07;;;;;;;10.97;3.23;;;14.80;1.00;;;;;;5035528;28;20403;-68
2023/10/14 09:26:38;;;;;;;7.40;2.37;;;15.00;1.00;;;;;;5046405;28;20424;-65
2023/10/14 09:29:04;;;;;;;13.20;3.30;;;15.00;1.00;;;;;;5034172;28;20424;-64
2023/10/14 09:31:30;;;;;;;5.70;2.53;;;15.10;1.00;;;;;;5043661;28;20964;-66
2023/10/14 09:33:55;;;;;;;6.30;2.40;;;15.10;1.00;;;;;;5053293;28;20460;-65
2023/10/14 09:36:22;;;;;;;8.30;2.43;;;15.00;1.00;;;;;;5054188;28;20198;-65
2023/10/14 09:38:49;;;;;;;8.10;2.33;;;15.00;1.00;;;;;;5055081;28;20170;-65
2023/10/14 09:41:15;;;;;;;10.40;2.80;;;14.90;1.00;;;;;;5053146;28;20434;-65
2023/10/14 09:43:46;;;;;;;6.60;2.07;;;14.40;1.00;;;;;;5052966;28;20407;-65
2023/10/14 09:46:17;;;;;;;6.30;3.73;;;13.80;1.00;;;;;;5053193;28;20433;-65
2023/10/14 09:48:45;;;;;;;9.70;2.97;;;13.50;1.00;;;;;;5054910;28;20432;-64
2023/10/14 09:51:15;;;;;;;12.70;2.87;;;13.70;1.00;;;;;;5053570;28;20896;-65
2023/10/14 09:53:44;;;;;;;10.47;2.27;;;14.20;1.00;;;;;;5054738;28;20402;-65
2023/10/14 09:56:12;;;;;;;12.00;3.37;;;14.60;1.00;;;;;;5053766;28;20478;-64
2023/10/14 09:58:43;;;;;;;9.30;2.63;;;14.90;1.00;;;;;;5037953;28;20419;-66
2023/10/14 10:01:14;;;;;;;9.33;2.30;;;15.10;1.00;;;;;;5041973;28;20438;-65
2023/10/14 10:04:00;;;;;;;10.93;2.43;;;15.30;1.00;;;;;;5034675;28;20392;-64
2023/10/14 10:06:47;;;;;;;5.47;2.10;;;15.10;1.00;;;;;;5031896;28;20465;-65
2023/10/14 10:09:27;;;;;;;1.87;1.63;;;14.70;1.00;;;;;;5032693;28;20432;-64
2023/10/14 10:11:57;;;;;;;1.80;1.40;;;13.20;1.00;;;;;;5034467;28;20398;-64
2023/10/14 10:14:25;;;;;;;3.83;2.00;;;12.20;1.00;;;;;;5037806;28;20448;-75
2023/10/14 10:16:52;;;;;;;3.13;1.57;;;11.60;1.00;;;;;;5053530;28;20396;-64
2023/10/14 10:19:21;;;;;;;2.50;0.90;;;11.40;1.00;;;;;;5054168;28;20383;-65
2023/10/14 10:22:13;;;;;;;6.70;1.43;;;11.40;1.00;;;;;;5052812;28;20395;-65
2023/10/14 10:24:42;;;;;;;7.63;2.10;;;11.60;1.00;;;;;;5053282;28;20413;-67
2023/10/14 10:27:10;;;;;;;3.73;1.50;;;12.20;1.00;;;;;;5053229;28;20437;-65
2023/10/14 10:29:52;;;;;;;2.70;1.73;;;12.50;1.00;;;;;;5041069;28;20829;-64
2023/10/14 10:32:22;;;;;;;3.93;2.33;;;12.70;1.00;;;;;;5032810;28;20377;-64
2023/10/14 10:35:06;;;;;;;5.27;1.77;;;12.70;1.00;;;;;;5038579;28;20448;-64
2023/10/14 10:37:43;;;;;;;1.80;1.70;;;12.50;1.00;;;;;;5052627;28;20521;-64
2023/10/14 10:40:12;;;;;;;5.90;1.97;;;12.20;1.00;;;;;;5053782;28;20891;-63
2023/10/14 10:42:45;;;;;;;11.80;2.00;;;11.80;1.00;;;;;;5051975;28;20393;-63
2023/10/14 10:45:21;;;;;;;5.03;1.97;;;11.60;1.00;;;;;;5052963;28;20410;-62
2023/10/14 10:47:52;;;;;;;5.20;2.43;;;11.30;1.00;;;;;;5051669;28;20967;-64
2023/10/14 10:50:18;;;;;;;6.80;2.03;;;11.10;1.00;;;;;;5053732;28;20372;-62
2023/10/14 10:52:54;;;;;;;7.97;2.03;;;11.00;1.00;;;;;;5053697;28;20891;-62
2023/10/14 10:55:23;;;;;;;13.60;2.10;;;11.10;1.00;;;;;;5052975;28;20421;-62
2023/10/14 10:57:55;;;;;;;3.50;2.00;;;11.20;1.00;;;;;;5053560;28;20391;-64
2023/10/14 11:00:22;;;;;;;4.90;1.60;;;11.40;1.00;;;;;;5052931;28;20372;-64
2023/10/14 11:02:50;;;;;;;4.33;1.87;;;11.40;1.00;;;;;;5052378;28;20456;-64
2023/10/14 11:05:21;;;;;;;4.47;1.90;;;11.50;1.00;;;;;;5052509;28;20421;-65
2023/10/14 11:07:48;;;;;;;11.97;2.97;;;11.60;1.00;;;;;;5053327;28;20448;-64
2023/10/14 11:10:13;;;;;;;11.67;2.17;;;11.50;1.00;;;;;;5052114;28;20392;-66
2023/10/14 11:12:40;;;;;;;9.67;1.93;;;11.50;1.00;;;;;;5053291;28;20404;-65
2023/10/14 11:15:21;;;;;;;7.30;2.57;;;11.30;1.00;;;;;;5046135;28;20681;-65
2023/10/14 11:17:58;;;;;;;6.13;1.80;;;11.30;1.00;;;;;;5050987;28;20210;-65
2023/10/14 11:20:26;;;;;;;5.83;1.90;;;11.40;1.00;;;;;;5053206;28;20463;-65
2023/10/14 11:22:55;;;;;;;6.43;2.60;;;11.70;1.00;;;;;;5053308;28;20758;-64
2023/10/14 11:25:22;;;;;;;1.80;1.50;;;11.90;1.00;;;;;;5052333;28;20378;-64
2023/10/14 11:27:48;;;;;;;6.70;2.07;;;12.30;1.00;;;;;;5053004;28;20461;-65
2023/10/14 11:30:16;;;;;;;5.77;2.47;;;12.60;1.00;;;;;;5046353;28;20400;-64
2023/10/14 11:32:52;;;;;;;5.30;1.80;;;12.40;1.00;;;;;;5053066;28;20816;-64
2023/10/14 11:35:21;;;;;;;5.07;2.00;;;12.40;1.00;;;;;;5051577;28;20405;-65
2023/10/14 11:37:51;;;;;;;4.10;2.83;;;12.60;1.00;;;;;;5053005;28;20435;-64
2023/10/14 11:40:17;;;;;;;11.60;3.57;;;12.30;1.00;;;;;;5053156;28;20401;-65
2023/10/14 11:42:43;;;;;;;4.20;1.83;;;12.00;1.00;;;;;;5052957;28;20388;-65
2023/10/14 11:45:10;;;;;;;7.97;2.13;;;12.00;1.00;;;;;;5050719;28;20474;-68
2023/10/14 11:47:40;;;;;;;12.87;3.57;;;12.00;1.00;;;;;;5052938;28;20457;-64
2023/10/14 11:50:12;;;;;;;11.00;2.40;;;11.90;1.00;;;;;;5052797;28;20782;-67
2023/10/14 11:52:45;;;;;;;4.40;2.53;;;11.90;1.00;;;;;;5055132;28;20372;-67
2023/10/14 11:55:16;;;;;;;6.23;2.40;;;11.90;1.00;;;;;;5056108;28;20413;-65
2023/10/14 11:57:48;;;;;;;8.33;2.60;;;11.80;1.00;;;;;;5056950;28;20400;-65
2023/10/14 12:00:20;;;;;;;3.63;1.97;;;11.50;1.00;;;;;;5054970;28;20425;-64
2023/10/14 12:02:46;;;;;;;7.93;3.37;;;11.50;1.00;;;;;;5056861;28;20758;-65
2023/10/14 12:05:16;;;;;;;5.90;2.80;;;11.50;1.00;;;;;;5055995;28;20967;-66
2023/10/14 12:07:47;;;;;;;5.93;2.10;;;11.50;1.00;;;;;;5055966;28;20423;-66
2023/10/14 12:10:13;;;;;;;4.90;3.73;;;11.60;1.00;;;;;;5056896;28;20406;-65
2023/10/14 12:12:39;;;;;;;17.63;3.10;;;11.70;1.00;;;;;;5056699;28;20380;-64
2023/10/14 12:15:08;;;;;;;9.80;3.10;;;11.70;1.00;;;;;;5055764;28;20404;-64
2023/10/14 12:17:35;;;;;;;10.43;2.83;;;12.00;1.00;;;;;;5050464;28;20438;-64
2023/10/14 12:20:10;;;;;;;9.33;2.90;;;12.20;1.00;;;;;;5052448;28;20408;-66
2023/10/14 12:22:40;;;;;;;8.70;2.77;;;12.50;1.00;;;;;;5048624;28;20391;-65
2023/10/14 12:25:06;;;;;;;11.50;2.87;;;12.70;1.00;;;;;;5055448;28;20876;-64
2023/10/14 12:27:33;;;;;;;7.97;2.60;;;12.90;1.00;;;;;;5052017;28;20838;-65
2023/10/14 12:30:00;;;;;;;9.23;2.10;;;13.10;1.00;;;;;;5043375;28;20768;-64
2023/10/14 12:32:32;;;;;;;9.27;2.67;;;13.50;1.00;;;;;;5056340;28;20417;-64
2023/10/14 12:35:06;;;;;;;12.90;2.50;;;13.90;1.00;;;;;;5049614;28;20405;-64
2023/10/14 12:37:33;;;;;;;6.50;2.30;;;13.80;1.00;;;;;;5056372;28;20430;-64
2023/10/14 12:40:05;;;;;;;13.53;2.70;;;13.80;1.00;;;;;;5056330;28;20774;-64
2023/10/14 12:42:46;;;;;;;12.63;2.70;;;14.50;1.00;;;;;;5048941;28;20428;-64
2023/10/14 12:45:14;;;;;;;8.13;2.30;;;14.70;1.00;;;;;;5044872;28;20425;-65
2023/10/14 12:47:46;;;;;;;6.50;2.03;;;14.70;1.00;;;;;;5055944;28;20957;-64
2023/10/14 12:50:13;;;;;;;8.87;3.07;;;14.60;1.00;;;;;;5041063;28;20405;-65
2023/10/14 12:52:40;;;;;;;17.00;2.90;;;14.20;1.00;;;;;;5055985;28;20386;-64
2023/10/14 12:55:14;;;;;;;8.33;2.70;;;14.00;1.00;;;;;;5062043;28;20412;-65
2023/10/14 12:57:41;;;;;;;6.27;2.80;;;14.00;1.00;;;;;;5044502;28;20540;-66
2023/10/14 13:00:17;;;;;;;14.53;2.53;;;13.90;1.00;;;;;;5035901;28;20435;-65
2023/10/14 13:02:43;;;;;;;5.53;2.10;;;13.90;1.00;;;;;;5039962;28;20775;-67
2023/10/14 13:05:13;;;;;;;7.40;2.00;;;14.40;1.00;;;;;;5051687;28;20440;-69
2023/10/14 13:07:40;;;;;;;13.47;3.07;;;14.90;1.00;;;;;;5047602;28;21026;-64
2023/10/14 13:10:08;;;;;;;12.70;2.77;;;15.30;1.00;;;;;;5035344;28;20400;-65
2023/10/14 13:12:34;;;;;;;10.70;2.57;;;15.00;99.90;;;;;;5034640;28;20490;-65
2023/10/14 13:15:05;;;;;;;8.83;3.30;;;14.20;99.90;;;;;;5033310;28;20853;-65
2023/10/14 13:17:35;;;;;;;9.63;2.70;;;13.50;99.90;;;;;;5039368;28;20455;-65
2023/10/14 13:20:01;;;;;;;6.50;2.50;;;13.20;99.90;;;;;;5036272;28;20914;-66
2023/10/14 13:22:29;;;;;;;6.67;2.27;;;13.30;1.00;;;;;;5048493;28;20425;-64
2023/10/14 13:24:55;;;;;;;5.27;1.83;;;13.90;1.00;;;;;;5054479;28;20410;-64
2023/10/14 13:27:21;;;;;;;6.30;1.83;;;14.30;1.00;;;;;;5055098;28;20739;-67
2023/10/14 13:29:47;;;;;;;10.73;2.10;;;14.10;99.90;;;;;;5055525;28;20579;-64
2023/10/14 13:32:16;;;;;;;8.70;2.07;;;13.70;99.90;;;;;;5055291;28;20409;-64
2023/10/14 13:34:45;;;;;;;5.03;2.80;;;13.60;1.00;;;;;;5052798;28;20526;-65
2023/10/14 13:37:13;;;;;;;4.33;2.70;;;13.30;99.90;;;;;;5055032;28;20417;-66
2023/10/14 13:39:41;;;;;;;6.20;1.93;;;13.20;1.00;;;;;;5054662;28;20405;-66